sensor_id;sensor_type;location;lat;lon;timestamp;P1;durP1;ratioP1;P2;durP2;ratioP2
11893;SDS011;6006;49.696;8.662;2022-10-30T00:00:30;8.53;;;4.20;;
11893;SDS011;6006;49.696;8.662;2022-10-30T00:02:57;6.17;;;4.20;;
11893;SDS011;6006;49.696;8.662;2022-10-30T00:05:24;8.47;;;4.60;;
11893;SDS011;6006;49.696;8.662;2022-10-30T00:07:52;7.63;;;4.13;;
11893;SDS011;6006;49.696;8.662;2022-10-30T00:10:22;8.13;;;4.50;;
11893;SDS011;6006;49.696;8.662;2022-10-30T00:12:49;10.57;;;4.80;;
11893;SDS011;6006;49.696;8.662;2022-10-30T00:15:16;7.33;;;4.27;;
11893;SDS011;6006;49.696;8.662;2022-10-30T00:17:43;7.77;;;4.23;;
11893;SDS011;6006;49.696;8.662;2022-10-30T00:20:10;8.03;;;4.30;;
11893;SDS011;6006;49.696;8.662;2022-10-30T00:22:36;7.60;;;4.73;;
11893;SDS011;6006;49.696;8.662;2022-10-30T00:25:04;8.37;;;4.40;;
11893;SDS011;6006;49.696;8.662;2022-10-30T00:27:32;6.33;;;4.27;;
11893;SDS011;6006;49.696;8.662;2022-10-30T00:29:59;8.83;;;4.77;;
11893;SDS011;6006;49.696;8.662;2022-10-30T00:32:26;8.77;;;4.40;;
11893;SDS011;6006;49.696;8.662;2022-10-30T00:34:53;5.40;;;3.97;;
11893;SDS011;6006;49.696;8.662;2022-10-30T00:37:20;6.13;;;4.30;;
11893;SDS011;6006;49.696;8.662;2022-10-30T00:39:46;8.13;;;4.27;;
11893;SDS011;6006;49.696;8.662;2022-10-30T00:42:13;7.40;;;4.87;;
11893;SDS011;6006;49.696;8.662;2022-10-30T00:44:46;12.97;;;4.77;;
11893;SDS011;6006;49.696;8.662;2022-10-30T00:47:16;9.47;;;4.47;;
11893;SDS011;6006;49.696;8.662;2022-10-30T00:49:49;11.07;;;4.10;;
11893;SDS011;6006;49.696;8.662;2022-10-30T00:52:20;7.63;;;4.20;;
11893;SDS011;6006;49.696;8.662;2022-10-30T00:54:52;8.07;;;4.47;;
11893;SDS011;6006;49.696;8.662;2022-10-30T00:57:21;7.07;;;4.13;;
11893;SDS011;6006;49.696;8.662;2022-10-30T00:59:51;6.40;;;4.33;;
11893;SDS011;6006;49.696;8.662;2022-10-30T01:02:18;5.97;;;4.33;;
11893;SDS011;6006;49.696;8.662;2022-10-30T01:04:46;7.30;;;4.40;;
11893;SDS011;6006;49.696;8.662;2022-10-30T01:07:15;6.83;;;4.33;;
11893;SDS011;6006;49.696;8.662;2022-10-30T01:09:42;5.67;;;4.17;;
11893;SDS011;6006;49.696;8.662;2022-10-30T01:12:11;11.47;;;4.57;;
11893;SDS011;6006;49.696;8.662;2022-10-30T01:14:40;12.77;;;4.80;;
11893;SDS011;6006;49.696;8.662;2022-10-30T01:20:29;8.37;;;3.83;;
11893;SDS011;6006;49.696;8.662;2022-10-30T01:23:20;6.47;;;4.47;;
11893;SDS011;6006;49.696;8.662;2022-10-30T01:25:56;4.83;;;3.93;;
11893;SDS011;6006;49.696;8.662;2022-10-30T01:28:34;8.37;;;4.20;;
11893;SDS011;6006;49.696;8.662;2022-10-30T01:31:15;5.03;;;4.23;;
11893;SDS011;6006;49.696;8.662;2022-10-30T01:33:57;7.57;;;4.00;;
11893;SDS011;6006;49.696;8.662;2022-10-30T01:36:29;8.67;;;4.13;;
11893;SDS011;6006;49.696;8.662;2022-10-30T01:39:04;5.70;;;3.77;;
11893;SDS011;6006;49.696;8.662;2022-10-30T01:41:35;10.43;;;4.90;;
11893;SDS011;6006;49.696;8.662;2022-10-30T01:44:02;8.77;;;4.37;;
11893;SDS011;6006;49.696;8.662;2022-10-30T01:46:37;8.77;;;4.30;;
11893;SDS011;6006;49.696;8.662;2022-10-30T01:49:15;8.47;;;4.40;;
11893;SDS011;6006;49.696;8.662;2022-10-30T01:52:05;7.80;;;4.03;;
11893;SDS011;6006;49.696;8.662;2022-10-30T01:54:41;6.17;;;4.47;;
11893;SDS011;6006;49.696;8.662;2022-10-30T01:57:19;6.57;;;4.33;;
11893;SDS011;6006;49.696;8.662;2022-10-30T01:59:58;8.90;;;4.63;;
11893;SDS011;6006;49.696;8.662;2022-10-30T02:02:28;9.37;;;4.70;;
11893;SDS011;6006;49.696;8.662;2022-10-30T02:04:58;6.37;;;4.67;;
11893;SDS011;6006;49.696;8.662;2022-10-30T02:07:25;10.23;;;4.90;;
11893;SDS011;6006;49.696;8.662;2022-10-30T02:09:52;7.83;;;4.90;;
11893;SDS011;6006;49.696;8.662;2022-10-30T02:12:20;9.63;;;4.37;;
11893;SDS011;6006;49.696;8.662;2022-10-30T02:14:48;8.90;;;4.33;;
11893;SDS011;6006;49.696;8.662;2022-10-30T02:17:18;9.17;;;4.27;;
11893;SDS011;6006;49.696;8.662;2022-10-30T02:19:45;8.33;;;4.37;;
11893;SDS011;6006;49.696;8.662;2022-10-30T02:22:14;6.40;;;4.10;;
11893;SDS011;6006;49.696;8.662;2022-10-30T02:24:41;7.53;;;4.23;;
11893;SDS011;6006;49.696;8.662;2022-10-30T02:27:08;7.77;;;3.90;;
11893;SDS011;6006;49.696;8.662;2022-10-30T02:29:35;7.30;;;3.70;;
11893;SDS011;6006;49.696;8.662;2022-10-30T02:32:02;5.40;;;3.93;;
11893;SDS011;6006;49.696;8.662;2022-10-30T02:34:29;6.63;;;4.00;;
11893;SDS011;6006;49.696;8.662;2022-10-30T02:36:56;6.23;;;3.60;;
11893;SDS011;6006;49.696;8.662;2022-10-30T02:39:24;4.20;;;3.80;;
11893;SDS011;6006;49.696;8.662;2022-10-30T02:41:51;4.43;;;3.40;;
11893;SDS011;6006;49.696;8.662;2022-10-30T02:44:18;5.27;;;3.60;;
11893;SDS011;6006;49.696;8.662;2022-10-30T02:46:45;7.90;;;4.37;;
11893;SDS011;6006;49.696;8.662;2022-10-30T02:49:12;5.73;;;3.67;;
11893;SDS011;6006;49.696;8.662;2022-10-30T02:51:38;7.90;;;4.20;;
11893;SDS011;6006;49.696;8.662;2022-10-30T02:54:05;7.70;;;4.37;;
11893;SDS011;6006;49.696;8.662;2022-10-30T02:56:34;3.50;;;3.20;;
11893;SDS011;6006;49.696;8.662;2022-10-30T02:59:00;5.10;;;3.97;;
11893;SDS011;6006;49.696;8.662;2022-10-30T03:01:27;6.37;;;3.93;;
11893;SDS011;6006;49.696;8.662;2022-10-30T03:03:54;9.70;;;4.00;;
11893;SDS011;6006;49.696;8.662;2022-10-30T03:06:21;6.73;;;3.97;;
11893;SDS011;6006;49.696;8.662;2022-10-30T03:08:48;5.77;;;3.80;;
11893;SDS011;6006;49.696;8.662;2022-10-30T03:11:16;5.77;;;3.90;;
11893;SDS011;6006;49.696;8.662;2022-10-30T03:13:45;6.47;;;3.63;;
11893;SDS011;6006;49.696;8.662;2022-10-30T03:16:14;6.50;;;4.20;;
11893;SDS011;6006;49.696;8.662;2022-10-30T03:18:42;7.33;;;3.63;;
11893;SDS011;6006;49.696;8.662;2022-10-30T03:21:10;7.50;;;4.20;;
11893;SDS011;6006;49.696;8.662;2022-10-30T03:23:39;9.83;;;3.70;;
11893;SDS011;6006;49.696;8.662;2022-10-30T03:26:06;7.00;;;4.10;;
11893;SDS011;6006;49.696;8.662;2022-10-30T03:28:33;8.40;;;4.23;;
11893;SDS011;6006;49.696;8.662;2022-10-30T03:31:02;6.83;;;4.37;;
11893;SDS011;6006;49.696;8.662;2022-10-30T03:33:30;6.13;;;4.03;;
11893;SDS011;6006;49.696;8.662;2022-10-30T03:35:57;5.90;;;4.10;;
11893;SDS011;6006;49.696;8.662;2022-10-30T03:38:24;7.43;;;4.07;;
11893;SDS011;6006;49.696;8.662;2022-10-30T03:40:51;5.73;;;4.40;;
11893;SDS011;6006;49.696;8.662;2022-10-30T03:43:18;6.37;;;4.30;;
11893;SDS011;6006;49.696;8.662;2022-10-30T03:45:46;5.77;;;3.53;;
11893;SDS011;6006;49.696;8.662;2022-10-30T03:48:15;5.80;;;3.63;;
11893;SDS011;6006;49.696;8.662;2022-10-30T03:50:42;11.27;;;4.17;;
11893;SDS011;6006;49.696;8.662;2022-10-30T03:53:09;5.67;;;3.73;;
11893;SDS011;6006;49.696;8.662;2022-10-30T03:55:37;6.17;;;4.10;;
11893;SDS011;6006;49.696;8.662;2022-10-30T03:58:04;7.10;;;3.80;;
11893;SDS011;6006;49.696;8.662;2022-10-30T04:00:31;7.27;;;4.03;;
11893;SDS011;6006;49.696;8.662;2022-10-30T04:02:58;5.00;;;3.20;;
11893;SDS011;6006;49.696;8.662;2022-10-30T04:05:27;5.10;;;4.55;;
11893;SDS011;6006;49.696;8.662;2022-10-30T04:07:54;7.40;;;4.40;;
11893;SDS011;6006;49.696;8.662;2022-10-30T04:10:22;8.20;;;4.10;;
11893;SDS011;6006;49.696;8.662;2022-10-30T04:12:49;8.10;;;4.07;;
11893;SDS011;6006;49.696;8.662;2022-10-30T04:15:17;4.43;;;3.60;;
11893;SDS011;6006;49.696;8.662;2022-10-30T04:17:47;6.07;;;3.57;;
11893;SDS011;6006;49.696;8.662;2022-10-30T04:20:15;7.70;;;4.23;;
11893;SDS011;6006;49.696;8.662;2022-10-30T04:22:44;4.63;;;3.60;;
11893;SDS011;6006;49.696;8.662;2022-10-30T04:25:11;7.00;;;3.73;;
11893;SDS011;6006;49.696;8.662;2022-10-30T04:27:39;5.80;;;3.63;;
11893;SDS011;6006;49.696;8.662;2022-10-30T04:30:07;7.83;;;4.07;;
11893;SDS011;6006;49.696;8.662;2022-10-30T04:32:36;6.77;;;3.90;;
11893;SDS011;6006;49.696;8.662;2022-10-30T04:35:10;4.43;;;3.50;;
11893;SDS011;6006;49.696;8.662;2022-10-30T04:37:37;4.67;;;3.43;;
11893;SDS011;6006;49.696;8.662;2022-10-30T04:40:06;6.43;;;3.57;;
11893;SDS011;6006;49.696;8.662;2022-10-30T04:42:33;5.97;;;4.07;;
11893;SDS011;6006;49.696;8.662;2022-10-30T04:45:00;7.97;;;3.73;;
11893;SDS011;6006;49.696;8.662;2022-10-30T04:47:28;5.43;;;3.70;;
11893;SDS011;6006;49.696;8.662;2022-10-30T04:49:55;5.87;;;3.83;;
11893;SDS011;6006;49.696;8.662;2022-10-30T04:52:22;6.27;;;4.30;;
11893;SDS011;6006;49.696;8.662;2022-10-30T04:54:49;6.37;;;3.70;;
11893;SDS011;6006;49.696;8.662;2022-10-30T04:57:17;10.33;;;4.00;;
11893;SDS011;6006;49.696;8.662;2022-10-30T04:59:44;7.10;;;3.43;;
11893;SDS011;6006;49.696;8.662;2022-10-30T05:02:11;7.30;;;4.10;;
11893;SDS011;6006;49.696;8.662;2022-10-30T05:04:38;5.00;;;3.83;;
11893;SDS011;6006;49.696;8.662;2022-10-30T05:07:05;7.90;;;3.90;;
11893;SDS011;6006;49.696;8.662;2022-10-30T05:09:32;4.10;;;3.70;;
11893;SDS011;6006;49.696;8.662;2022-10-30T05:11:59;6.70;;;4.13;;
11893;SDS011;6006;49.696;8.662;2022-10-30T05:14:28;6.20;;;4.00;;
11893;SDS011;6006;49.696;8.662;2022-10-30T05:16:55;8.57;;;3.97;;
11893;SDS011;6006;49.696;8.662;2022-10-30T05:19:22;6.13;;;3.57;;
11893;SDS011;6006;49.696;8.662;2022-10-30T05:21:49;4.73;;;3.20;;
11893;SDS011;6006;49.696;8.662;2022-10-30T05:24:16;6.57;;;3.70;;
11893;SDS011;6006;49.696;8.662;2022-10-30T05:26:44;6.87;;;4.17;;
11893;SDS011;6006;49.696;8.662;2022-10-30T05:29:11;5.80;;;3.60;;
11893;SDS011;6006;49.696;8.662;2022-10-30T05:31:39;6.43;;;3.87;;
11893;SDS011;6006;49.696;8.662;2022-10-30T05:34:06;6.60;;;4.27;;
11893;SDS011;6006;49.696;8.662;2022-10-30T05:36:33;6.07;;;3.33;;
11893;SDS011;6006;49.696;8.662;2022-10-30T05:39:00;5.67;;;4.30;;
11893;SDS011;6006;49.696;8.662;2022-10-30T05:41:27;6.93;;;3.77;;
11893;SDS011;6006;49.696;8.662;2022-10-30T05:43:54;5.27;;;3.37;;
11893;SDS011;6006;49.696;8.662;2022-10-30T05:46:21;6.03;;;3.27;;
11893;SDS011;6006;49.696;8.662;2022-10-30T05:48:49;6.93;;;3.53;;
11893;SDS011;6006;49.696;8.662;2022-10-30T05:51:16;6.63;;;3.93;;
11893;SDS011;6006;49.696;8.662;2022-10-30T05:53:43;4.80;;;3.97;;
11893;SDS011;6006;49.696;8.662;2022-10-30T05:56:09;8.07;;;3.83;;
11893;SDS011;6006;49.696;8.662;2022-10-30T05:58:36;7.30;;;3.90;;
11893;SDS011;6006;49.696;8.662;2022-10-30T06:01:04;5.57;;;3.83;;
11893;SDS011;6006;49.696;8.662;2022-10-30T06:03:32;7.63;;;3.83;;
11893;SDS011;6006;49.696;8.662;2022-10-30T06:06:00;7.17;;;4.13;;
11893;SDS011;6006;49.696;8.662;2022-10-30T06:08:27;4.60;;;3.50;;
11893;SDS011;6006;49.696;8.662;2022-10-30T06:10:53;4.93;;;4.10;;
11893;SDS011;6006;49.696;8.662;2022-10-30T06:13:20;7.33;;;4.07;;
11893;SDS011;6006;49.696;8.662;2022-10-30T06:15:47;6.93;;;3.83;;
11893;SDS011;6006;49.696;8.662;2022-10-30T06:18:14;6.40;;;4.00;;
11893;SDS011;6006;49.696;8.662;2022-10-30T06:20:41;4.47;;;3.93;;
11893;SDS011;6006;49.696;8.662;2022-10-30T06:23:09;5.63;;;4.27;;
11893;SDS011;6006;49.696;8.662;2022-10-30T06:25:36;5.57;;;4.47;;
11893;SDS011;6006;49.696;8.662;2022-10-30T06:28:03;8.33;;;4.10;;
11893;SDS011;6006;49.696;8.662;2022-10-30T06:30:30;7.87;;;4.47;;
11893;SDS011;6006;49.696;8.662;2022-10-30T06:32:58;5.30;;;4.10;;
11893;SDS011;6006;49.696;8.662;2022-10-30T06:35:25;8.50;;;4.30;;
11893;SDS011;6006;49.696;8.662;2022-10-30T06:37:53;6.87;;;4.33;;
11893;SDS011;6006;49.696;8.662;2022-10-30T06:40:22;4.57;;;4.07;;
11893;SDS011;6006;49.696;8.662;2022-10-30T06:42:50;6.93;;;4.50;;
11893;SDS011;6006;49.696;8.662;2022-10-30T06:45:19;5.17;;;4.00;;
11893;SDS011;6006;49.696;8.662;2022-10-30T06:47:48;10.73;;;4.20;;
11893;SDS011;6006;49.696;8.662;2022-10-30T06:50:15;8.47;;;4.50;;
11893;SDS011;6006;49.696;8.662;2022-10-30T06:52:44;5.57;;;3.77;;
11893;SDS011;6006;49.696;8.662;2022-10-30T06:55:11;7.83;;;3.97;;
11893;SDS011;6006;49.696;8.662;2022-10-30T06:57:39;7.83;;;4.67;;
11893;SDS011;6006;49.696;8.662;2022-10-30T07:00:06;5.53;;;4.30;;
11893;SDS011;6006;49.696;8.662;2022-10-30T07:02:34;6.67;;;4.20;;
11893;SDS011;6006;49.696;8.662;2022-10-30T07:05:01;6.77;;;4.40;;
11893;SDS011;6006;49.696;8.662;2022-10-30T07:07:28;8.57;;;4.90;;
11893;SDS011;6006;49.696;8.662;2022-10-30T07:09:55;8.40;;;5.83;;
11893;SDS011;6006;49.696;8.662;2022-10-30T07:12:22;10.03;;;5.23;;
11893;SDS011;6006;49.696;8.662;2022-10-30T07:14:50;6.63;;;5.47;;
11893;SDS011;6006;49.696;8.662;2022-10-30T07:17:17;5.80;;;5.20;;
11893;SDS011;6006;49.696;8.662;2022-10-30T07:19:43;10.43;;;6.50;;
11893;SDS011;6006;49.696;8.662;2022-10-30T07:22:10;8.37;;;5.13;;
11893;SDS011;6006;49.696;8.662;2022-10-30T07:24:37;9.93;;;6.50;;
11893;SDS011;6006;49.696;8.662;2022-10-30T07:27:04;7.63;;;5.57;;
11893;SDS011;6006;49.696;8.662;2022-10-30T07:29:31;9.93;;;5.50;;
11893;SDS011;6006;49.696;8.662;2022-10-30T07:31:59;7.03;;;5.73;;
11893;SDS011;6006;49.696;8.662;2022-10-30T07:34:26;7.63;;;5.40;;
11893;SDS011;6006;49.696;8.662;2022-10-30T07:36:53;8.07;;;5.80;;
11893;SDS011;6006;49.696;8.662;2022-10-30T07:39:19;14.10;;;5.87;;
11893;SDS011;6006;49.696;8.662;2022-10-30T07:41:47;9.00;;;5.23;;
11893;SDS011;6006;49.696;8.662;2022-10-30T07:44:14;8.87;;;5.60;;
11893;SDS011;6006;49.696;8.662;2022-10-30T07:46:41;7.80;;;5.00;;
11893;SDS011;6006;49.696;8.662;2022-10-30T07:49:09;6.67;;;4.70;;
11893;SDS011;6006;49.696;8.662;2022-10-30T07:51:36;7.23;;;4.37;;
11893;SDS011;6006;49.696;8.662;2022-10-30T07:54:03;5.83;;;4.53;;
11893;SDS011;6006;49.696;8.662;2022-10-30T07:56:29;6.30;;;4.77;;
11893;SDS011;6006;49.696;8.662;2022-10-30T07:58:56;7.67;;;5.00;;
11893;SDS011;6006;49.696;8.662;2022-10-30T08:01:23;5.33;;;4.43;;
11893;SDS011;6006;49.696;8.662;2022-10-30T08:03:50;7.73;;;5.50;;
11893;SDS011;6006;49.696;8.662;2022-10-30T08:06:18;8.50;;;5.93;;
11893;SDS011;6006;49.696;8.662;2022-10-30T08:08:45;9.83;;;6.07;;
11893;SDS011;6006;49.696;8.662;2022-10-30T08:11:12;7.00;;;5.53;;
11893;SDS011;6006;49.696;8.662;2022-10-30T08:13:39;8.13;;;6.17;;
11893;SDS011;6006;49.696;8.662;2022-10-30T08:16:06;9.47;;;5.70;;
11893;SDS011;6006;49.696;8.662;2022-10-30T08:18:33;7.80;;;5.80;;
11893;SDS011;6006;49.696;8.662;2022-10-30T08:21:00;11.40;;;6.50;;
11893;SDS011;6006;49.696;8.662;2022-10-30T08:23:28;7.93;;;6.03;;
11893;SDS011;6006;49.696;8.662;2022-10-30T08:25:56;12.40;;;6.00;;
11893;SDS011;6006;49.696;8.662;2022-10-30T08:28:25;8.90;;;5.80;;
11893;SDS011;6006;49.696;8.662;2022-10-30T08:30:52;10.13;;;6.23;;
11893;SDS011;6006;49.696;8.662;2022-10-30T08:33:19;8.37;;;5.67;;
11893;SDS011;6006;49.696;8.662;2022-10-30T08:35:46;10.70;;;5.60;;
11893;SDS011;6006;49.696;8.662;2022-10-30T08:38:14;8.83;;;5.33;;
11893;SDS011;6006;49.696;8.662;2022-10-30T08:40:43;8.90;;;5.73;;
11893;SDS011;6006;49.696;8.662;2022-10-30T08:43:10;8.37;;;5.70;;
11893;SDS011;6006;49.696;8.662;2022-10-30T08:45:37;6.03;;;5.43;;
11893;SDS011;6006;49.696;8.662;2022-10-30T08:48:04;7.50;;;5.10;;
11893;SDS011;6006;49.696;8.662;2022-10-30T08:50:32;6.93;;;5.30;;
11893;SDS011;6006;49.696;8.662;2022-10-30T08:53:00;9.33;;;5.50;;
11893;SDS011;6006;49.696;8.662;2022-10-30T08:55:27;8.53;;;5.40;;
11893;SDS011;6006;49.696;8.662;2022-10-30T08:57:56;10.57;;;5.00;;
11893;SDS011;6006;49.696;8.662;2022-10-30T09:00:23;6.97;;;5.17;;
11893;SDS011;6006;49.696;8.662;2022-10-30T09:02:50;9.80;;;5.10;;
11893;SDS011;6006;49.696;8.662;2022-10-30T09:05:18;6.97;;;5.40;;
11893;SDS011;6006;49.696;8.662;2022-10-30T09:07:45;10.50;;;5.63;;
11893;SDS011;6006;49.696;8.662;2022-10-30T09:10:12;7.97;;;5.37;;
11893;SDS011;6006;49.696;8.662;2022-10-30T09:12:40;8.33;;;4.67;;
11893;SDS011;6006;49.696;8.662;2022-10-30T09:15:08;7.07;;;4.40;;
11893;SDS011;6006;49.696;8.662;2022-10-30T09:17:35;9.13;;;4.73;;
11893;SDS011;6006;49.696;8.662;2022-10-30T09:20:02;12.50;;;5.03;;
11893;SDS011;6006;49.696;8.662;2022-10-30T09:22:29;8.80;;;5.05;;
11893;SDS011;6006;49.696;8.662;2022-10-30T09:24:56;9.47;;;5.40;;
11893;SDS011;6006;49.696;8.662;2022-10-30T09:27:23;5.85;;;4.57;;
11893;SDS011;6006;49.696;8.662;2022-10-30T09:29:51;10.25;;;4.85;;
11893;SDS011;6006;49.696;8.662;2022-10-30T09:32:20;7.88;;;4.05;;
11893;SDS011;6006;49.696;8.662;2022-10-30T09:34:47;9.88;;;5.47;;
11893;SDS011;6006;49.696;8.662;2022-10-30T09:37:14;6.45;;;4.85;;
11893;SDS011;6006;49.696;8.662;2022-10-30T09:39:41;7.45;;;4.70;;
11893;SDS011;6006;49.696;8.662;2022-10-30T09:42:13;6.63;;;4.60;;
11893;SDS011;6006;49.696;8.662;2022-10-30T09:45:05;8.00;;;4.47;;
11893;SDS011;6006;49.696;8.662;2022-10-30T09:48:02;7.72;;;4.50;;
11893;SDS011;6006;49.696;8.662;2022-10-30T09:50:39;5.95;;;4.30;;
11893;SDS011;6006;49.696;8.662;2022-10-30T09:53:20;7.13;;;4.88;;
11893;SDS011;6006;49.696;8.662;2022-10-30T09:55:56;9.65;;;4.85;;
11893;SDS011;6006;49.696;8.662;2022-10-30T09:58:31;11.68;;;5.18;;
11893;SDS011;6006;49.696;8.662;2022-10-30T10:01:08;7.55;;;4.35;;
11893;SDS011;6006;49.696;8.662;2022-10-30T10:03:48;7.38;;;4.15;;
11893;SDS011;6006;49.696;8.662;2022-10-30T10:06:21;8.10;;;4.10;;
11893;SDS011;6006;49.696;8.662;2022-10-30T10:08:49;7.03;;;4.30;;
11893;SDS011;6006;49.696;8.662;2022-10-30T10:11:20;11.68;;;3.70;;
11893;SDS011;6006;49.696;8.662;2022-10-30T10:13:51;10.32;;;4.20;;
11893;SDS011;6006;49.696;8.662;2022-10-30T10:16:24;12.32;;;4.05;;
11893;SDS011;6006;49.696;8.662;2022-10-30T10:18:56;7.15;;;3.78;;
11893;SDS011;6006;49.696;8.662;2022-10-30T10:21:28;9.65;;;4.63;;
11893;SDS011;6006;49.696;8.662;2022-10-30T10:23:56;9.70;;;4.65;;
11893;SDS011;6006;49.696;8.662;2022-10-30T10:26:27;13.23;;;4.90;;
11893;SDS011;6006;49.696;8.662;2022-10-30T10:29:07;8.05;;;5.03;;
11893;SDS011;6006;49.696;8.662;2022-10-30T10:31:50;9.68;;;5.30;;
11893;SDS011;6006;49.696;8.662;2022-10-30T10:34:41;8.50;;;4.90;;
11893;SDS011;6006;49.696;8.662;2022-10-30T10:37:23;12.85;;;5.25;;
11893;SDS011;6006;49.696;8.662;2022-10-30T10:40:02;10.93;;;5.80;;
11893;SDS011;6006;49.696;8.662;2022-10-30T10:42:58;8.25;;;5.45;;
11893;SDS011;6006;49.696;8.662;2022-10-30T10:45:39;11.55;;;5.22;;
11893;SDS011;6006;49.696;8.662;2022-10-30T10:48:24;9.25;;;5.35;;
11893;SDS011;6006;49.696;8.662;2022-10-30T10:51:05;10.15;;;5.40;;
11893;SDS011;6006;49.696;8.662;2022-10-30T10:53:39;6.65;;;5.07;;
11893;SDS011;6006;49.696;8.662;2022-10-30T10:56:09;13.63;;;5.75;;
11893;SDS011;6006;49.696;8.662;2022-10-30T10:58:38;8.93;;;4.82;;
11893;SDS011;6006;49.696;8.662;2022-10-30T11:01:16;9.45;;;5.22;;
11893;SDS011;6006;49.696;8.662;2022-10-30T11:03:49;6.50;;;4.65;;
11893;SDS011;6006;49.696;8.662;2022-10-30T11:06:23;9.25;;;4.07;;
11893;SDS011;6006;49.696;8.662;2022-10-30T11:08:53;8.23;;;4.13;;
11893;SDS011;6006;49.696;8.662;2022-10-30T11:11:27;5.97;;;3.80;;
11893;SDS011;6006;49.696;8.662;2022-10-30T11:13:54;7.80;;;4.07;;
11893;SDS011;6006;49.696;8.662;2022-10-30T11:16:24;6.97;;;4.05;;
11893;SDS011;6006;49.696;8.662;2022-10-30T11:18:56;7.97;;;3.92;;
11893;SDS011;6006;49.696;8.662;2022-10-30T11:21:28;6.28;;;4.03;;
11893;SDS011;6006;49.696;8.662;2022-10-30T11:23:59;9.65;;;4.40;;
11893;SDS011;6006;49.696;8.662;2022-10-30T11:26:27;9.95;;;4.43;;
11893;SDS011;6006;49.696;8.662;2022-10-30T11:28:57;9.18;;;4.55;;
11893;SDS011;6006;49.696;8.662;2022-10-30T11:31:29;11.90;;;4.43;;
11893;SDS011;6006;49.696;8.662;2022-10-30T11:36:54;10.10;;;5.40;;
11893;SDS011;6006;49.696;8.662;2022-10-30T11:39:22;12.38;;;4.50;;
11893;SDS011;6006;49.696;8.662;2022-10-30T11:41:53;8.55;;;4.32;;
11893;SDS011;6006;49.696;8.662;2022-10-30T11:44:24;9.35;;;5.38;;
11893;SDS011;6006;49.696;8.662;2022-10-30T11:46:54;9.05;;;5.32;;
11893;SDS011;6006;49.696;8.662;2022-10-30T11:49:22;9.82;;;5.25;;
11893;SDS011;6006;49.696;8.662;2022-10-30T11:51:58;14.48;;;4.82;;
11893;SDS011;6006;49.696;8.662;2022-10-30T11:54:25;9.13;;;4.78;;
11893;SDS011;6006;49.696;8.662;2022-10-30T11:56:53;10.70;;;5.30;;
11893;SDS011;6006;49.696;8.662;2022-10-30T11:59:21;8.70;;;5.03;;
11893;SDS011;6006;49.696;8.662;2022-10-30T12:01:59;9.25;;;4.57;;
11893;SDS011;6006;49.696;8.662;2022-10-30T12:04:29;8.60;;;4.13;;
11893;SDS011;6006;49.696;8.662;2022-10-30T12:07:07;8.98;;;3.75;;
11893;SDS011;6006;49.696;8.662;2022-10-30T12:09:45;5.13;;;3.67;;
11893;SDS011;6006;49.696;8.662;2022-10-30T12:12:17;8.15;;;3.40;;
11893;SDS011;6006;49.696;8.662;2022-10-30T12:14:47;9.70;;;3.50;;
11893;SDS011;6006;49.696;8.662;2022-10-30T12:17:15;9.57;;;3.17;;
11893;SDS011;6006;49.696;8.662;2022-10-30T12:19:44;8.63;;;3.17;;
11893;SDS011;6006;49.696;8.662;2022-10-30T12:22:26;8.13;;;3.33;;
11893;SDS011;6006;49.696;8.662;2022-10-30T12:24:55;9.73;;;4.07;;
11893;SDS011;6006;49.696;8.662;2022-10-30T12:27:24;10.55;;;4.05;;
11893;SDS011;6006;49.696;8.662;2022-10-30T12:29:58;10.73;;;3.88;;
11893;SDS011;6006;49.696;8.662;2022-10-30T12:32:32;6.93;;;3.17;;
11893;SDS011;6006;49.696;8.662;2022-10-30T12:35:08;7.93;;;3.10;;
11893;SDS011;6006;49.696;8.662;2022-10-30T12:37:44;7.55;;;3.35;;
11893;SDS011;6006;49.696;8.662;2022-10-30T12:40:15;7.00;;;3.40;;
11893;SDS011;6006;49.696;8.662;2022-10-30T12:42:47;8.60;;;3.08;;
11893;SDS011;6006;49.696;8.662;2022-10-30T12:45:20;8.25;;;3.03;;
11893;SDS011;6006;49.696;8.662;2022-10-30T12:47:54;4.43;;;2.70;;
11893;SDS011;6006;49.696;8.662;2022-10-30T12:50:26;7.57;;;2.90;;
11893;SDS011;6006;49.696;8.662;2022-10-30T12:52:59;8.50;;;3.10;;
11893;SDS011;6006;49.696;8.662;2022-10-30T12:55:33;5.88;;;3.20;;
11893;SDS011;6006;49.696;8.662;2022-10-30T12:58:06;5.18;;;2.63;;
11893;SDS011;6006;49.696;8.662;2022-10-30T13:00:40;4.55;;;2.58;;
11893;SDS011;6006;49.696;8.662;2022-10-30T13:03:19;9.50;;;3.35;;
11893;SDS011;6006;49.696;8.662;2022-10-30T13:05:52;7.28;;;2.67;;
11893;SDS011;6006;49.696;8.662;2022-10-30T13:08:25;6.85;;;3.03;;
11893;SDS011;6006;49.696;8.662;2022-10-30T13:10:58;6.28;;;3.10;;
11893;SDS011;6006;49.696;8.662;2022-10-30T13:13:32;7.82;;;2.63;;
11893;SDS011;6006;49.696;8.662;2022-10-30T13:16:02;4.63;;;3.00;;
11893;SDS011;6006;49.696;8.662;2022-10-30T13:18:35;5.75;;;2.55;;
11893;SDS011;6006;49.696;8.662;2022-10-30T13:21:05;7.18;;;2.65;;
11893;SDS011;6006;49.696;8.662;2022-10-30T13:23:45;6.97;;;3.10;;
11893;SDS011;6006;49.696;8.662;2022-10-30T13:26:20;6.40;;;2.70;;
11893;SDS011;6006;49.696;8.662;2022-10-30T13:28:54;4.60;;;2.20;;
11893;SDS011;6006;49.696;8.662;2022-10-30T13:31:28;7.53;;;3.28;;
11893;SDS011;6006;49.696;8.662;2022-10-30T13:34:10;6.22;;;2.78;;
11893;SDS011;6006;49.696;8.662;2022-10-30T13:36:52;8.80;;;4.03;;
11893;SDS011;6006;49.696;8.662;2022-10-30T13:39:28;7.20;;;2.60;;
11893;SDS011;6006;49.696;8.662;2022-10-30T13:42:06;4.90;;;2.50;;
11893;SDS011;6006;49.696;8.662;2022-10-30T13:44:44;4.97;;;2.72;;
11893;SDS011;6006;49.696;8.662;2022-10-30T13:47:23;5.40;;;2.58;;
11893;SDS011;6006;49.696;8.662;2022-10-30T13:49:58;9.00;;;5.43;;
11893;SDS011;6006;49.696;8.662;2022-10-30T13:52:44;4.43;;;2.83;;
11893;SDS011;6006;49.696;8.662;2022-10-30T13:55:18;5.82;;;2.35;;
11893;SDS011;6006;49.696;8.662;2022-10-30T13:57:50;8.55;;;3.30;;
11893;SDS011;6006;49.696;8.662;2022-10-30T14:00:24;4.00;;;2.50;;
11893;SDS011;6006;49.696;8.662;2022-10-30T14:03:10;6.43;;;2.40;;
11893;SDS011;6006;49.696;8.662;2022-10-30T14:05:43;3.72;;;2.40;;
11893;SDS011;6006;49.696;8.662;2022-10-30T14:08:15;8.25;;;2.83;;
11893;SDS011;6006;49.696;8.662;2022-10-30T14:10:52;7.13;;;3.08;;
11893;SDS011;6006;49.696;8.662;2022-10-30T14:13:21;4.20;;;2.33;;
11893;SDS011;6006;49.696;8.662;2022-10-30T14:15:52;4.10;;;2.10;;
11893;SDS011;6006;49.696;8.662;2022-10-30T14:18:22;7.68;;;3.65;;
11893;SDS011;6006;49.696;8.662;2022-10-30T14:20:54;5.78;;;2.47;;
11893;SDS011;6006;49.696;8.662;2022-10-30T14:23:23;7.97;;;3.08;;
11893;SDS011;6006;49.696;8.662;2022-10-30T14:28:39;7.53;;;2.65;;
11893;SDS011;6006;49.696;8.662;2022-10-30T14:31:08;18.27;;;7.10;;
11893;SDS011;6006;49.696;8.662;2022-10-30T14:33:46;11.52;;;5.15;;
11893;SDS011;6006;49.696;8.662;2022-10-30T14:36:16;4.85;;;2.30;;
11893;SDS011;6006;49.696;8.662;2022-10-30T14:38:54;6.93;;;3.30;;
11893;SDS011;6006;49.696;8.662;2022-10-30T14:44:19;7.30;;;3.92;;
11893;SDS011;6006;49.696;8.662;2022-10-30T14:46:57;3.65;;;2.15;;
11893;SDS011;6006;49.696;8.662;2022-10-30T14:49:48;4.30;;;1.80;;
11893;SDS011;6006;49.696;8.662;2022-10-30T14:52:27;4.35;;;1.70;;
11893;SDS011;6006;49.696;8.662;2022-10-30T14:55:04;4.72;;;1.75;;
11893;SDS011;6006;49.696;8.662;2022-10-30T14:57:51;6.50;;;2.28;;
11893;SDS011;6006;49.696;8.662;2022-10-30T15:00:26;2.75;;;1.88;;
11893;SDS011;6006;49.696;8.662;2022-10-30T15:03:04;3.25;;;1.95;;
11893;SDS011;6006;49.696;8.662;2022-10-30T15:05:38;4.43;;;2.08;;
11893;SDS011;6006;49.696;8.662;2022-10-30T15:08:13;7.25;;;2.42;;
11893;SDS011;6006;49.696;8.662;2022-10-30T15:10:57;4.40;;;2.20;;
11893;SDS011;6006;49.696;8.662;2022-10-30T15:13:45;3.33;;;2.03;;
11893;SDS011;6006;49.696;8.662;2022-10-30T15:16:16;5.85;;;2.22;;
11893;SDS011;6006;49.696;8.662;2022-10-30T15:18:46;3.17;;;1.77;;
11893;SDS011;6006;49.696;8.662;2022-10-30T15:21:20;3.15;;;1.75;;
11893;SDS011;6006;49.696;8.662;2022-10-30T15:23:53;4.93;;;2.28;;
11893;SDS011;6006;49.696;8.662;2022-10-30T15:26:22;4.50;;;1.85;;
11893;SDS011;6006;49.696;8.662;2022-10-30T15:28:52;4.07;;;2.03;;
11893;SDS011;6006;49.696;8.662;2022-10-30T15:31:20;4.55;;;1.90;;